QTR116 LIRF-OTHH
Flight info
| Callsign | QTR116 |
|---|---|
| Flight time | 4h 43m |
| Altitude | 35000 |
| Route | SIPRO DCT IPKAM DCT AMSOR DCT EKTOL DCT DOGUS DCT ULFIG DCT LATAN DCT OSDES DCT TRL DCT GUDIS/N0488F370 DCT KAVOS DCT EVORA DCT LAKTO L560 SERMA L550 KARIK B411 DEESA Y415 TAMRO N318 HAYYA |
| Aircraft | B77W/H-SDE1E2E3FGHIJ2J3J4J5M1RWXY/LB1D1 |
Departure
| Time | 2026-02-17 11:09 |
|---|---|
| Airport | Rome–Fiumicino Leonardo da Vinci International Airport (LIRF) |
Arrival
| Time | 2026-02-17 15:52 |
|---|---|
| Airport | Hamad International Airport (OTHH) |
| Time | Latitude | Longitude | Altitude | Speed | Heading |
|---|---|---|---|---|---|
| 2026-02-17 10:12 | 41.79582 | 12.24042 | 19 ft | 0 kts | 69° |
| 2026-02-17 10:48 | 41.79582 | 12.24041 | 19 ft | 1 kts | 69° |
| 2026-02-17 10:48 | 41.79577 | 12.24023 | 22 ft | 3 kts | 69° |
| 2026-02-17 10:49 | 41.79570 | 12.23999 | 24 ft | 3 kts | 70° |
| 2026-02-17 10:49 | 41.79565 | 12.23973 | 23 ft | 3 kts | 86° |
| 2026-02-17 10:49 | 41.79566 | 12.23948 | 24 ft | 3 kts | 113° |
| 2026-02-17 10:49 | 41.79576 | 12.23927 | 23 ft | 3 kts | 144° |
| 2026-02-17 10:50 | 41.79590 | 12.23916 | 22 ft | 1 kts | 160° |
| 2026-02-17 10:50 | 41.79603 | 12.23910 | 23 ft | 3 kts | 160° |
| 2026-02-17 10:50 | 41.79621 | 12.23901 | 23 ft | 2 kts | 160° |
| 2026-02-17 10:51 | 41.79625 | 12.23899 | 21 ft | 0 kts | 160° |
| 2026-02-17 10:59 | 41.79456 | 12.23983 | 19 ft | 29 kts | 160° |
| 2026-02-17 10:59 | 41.79384 | 12.24018 | 19 ft | 5 kts | 165° |
| 2026-02-17 10:59 | 41.79380 | 12.24018 | 19 ft | 0 kts | 168° |
| 2026-02-17 10:59 | 41.79372 | 12.24018 | 19 ft | 1 kts | 185° |
| 2026-02-17 11:00 | 41.79356 | 12.24011 | 19 ft | 4 kts | 204° |
| 2026-02-17 11:00 | 41.79349 | 12.24006 | 19 ft | 0 kts | 210° |
| 2026-02-17 11:04 | 41.79348 | 12.24005 | 19 ft | 2 kts | 210° |
| 2026-02-17 11:04 | 41.79251 | 12.23948 | 20 ft | 29 kts | 186° |
| 2026-02-17 11:04 | 41.79038 | 12.24025 | 21 ft | 31 kts | 163° |
| 2026-02-17 11:04 | 41.78836 | 12.24108 | 20 ft | 30 kts | 164° |
| 2026-02-17 11:05 | 41.78633 | 12.24191 | 19 ft | 30 kts | 163° |
| 2026-02-17 11:05 | 41.78436 | 12.24273 | 22 ft | 30 kts | 162° |
| 2026-02-17 11:05 | 41.78330 | 12.24281 | 21 ft | 10 kts | 224° |
| 2026-02-17 11:05 | 41.78306 | 12.24194 | 19 ft | 10 kts | 252° |
| 2026-02-17 11:06 | 41.78303 | 12.24184 | 19 ft | 0 kts | 252° |
| 2026-02-17 11:06 | 41.78303 | 12.24181 | 19 ft | 3 kts | 252° |
| 2026-02-17 11:07 | 41.78345 | 12.23972 | 23 ft | 15 kts | 350° |
| 2026-02-17 11:07 | 41.78424 | 12.23947 | 21 ft | 0 kts | 342° |
| 2026-02-17 11:08 | 41.78479 | 12.23924 | 19 ft | 22 kts | 342° |
| 2026-02-17 11:08 | 41.78822 | 12.23780 | 22 ft | 88 kts | 343° |
| 2026-02-17 11:08 | 41.79621 | 12.23447 | 18 ft | 152 kts | 343° |
| 2026-02-17 11:08 | 41.80757 | 12.23039 | 342 ft | 167 kts | 343° |
| 2026-02-17 11:09 | 41.81902 | 12.22592 | 953 ft | 175 kts | 329° |
| 2026-02-17 11:09 | 41.82744 | 12.21490 | 1727 ft | 171 kts | 305° |
| 2026-02-17 11:09 | 41.83263 | 12.19946 | 2018 ft | 195 kts | 294° |
| 2026-02-17 11:09 | 41.83726 | 12.18119 | 2357 ft | 215 kts | 293° |
| 2026-02-17 11:10 | 41.84198 | 12.16194 | 2975 ft | 223 kts | 294° |
| 2026-02-17 11:10 | 41.84687 | 12.14201 | 3677 ft | 227 kts | 293° |
| 2026-02-17 11:10 | 41.84984 | 12.12039 | 4040 ft | 252 kts | 271° |
| 2026-02-17 11:11 | 41.83155 | 12.07768 | 5410 ft | 288 kts | 217° |
| 2026-02-17 11:11 | 41.81291 | 12.06761 | 6296 ft | 294 kts | 188° |
| 2026-02-17 11:11 | 41.79261 | 12.07036 | 7094 ft | 297 kts | 158° |
| 2026-02-17 11:11 | 41.78049 | 12.07844 | 7544 ft | 299 kts | 147° |
| 2026-02-17 11:12 | 41.76295 | 12.09442 | 7794 ft | 306 kts | 143° |
| 2026-02-17 11:12 | 41.73971 | 12.11659 | 7781 ft | 308 kts | 143° |
| 2026-02-17 11:12 | 41.72794 | 12.12785 | 7838 ft | 306 kts | 137° |
| 2026-02-17 11:12 | 41.71589 | 12.15016 | 8385 ft | 299 kts | 104° |
| 2026-02-17 11:13 | 41.71139 | 12.17700 | 9068 ft | 297 kts | 96° |
| 2026-02-17 11:13 | 41.70722 | 12.20457 | 9786 ft | 303 kts | 97° |
| 2026-02-17 11:13 | 41.70281 | 12.23265 | 10330 ft | 316 kts | 97° |
| 2026-02-17 11:13 | 41.69808 | 12.26228 | 10517 ft | 341 kts | 98° |
| 2026-02-17 11:14 | 41.69285 | 12.29446 | 10732 ft | 366 kts | 98° |
| 2026-02-17 11:14 | 41.68716 | 12.32872 | 11117 ft | 384 kts | 99° |
| 2026-02-17 11:14 | 41.68116 | 12.36405 | 11858 ft | 393 kts | 99° |
| 2026-02-17 11:15 | 41.66869 | 12.43631 | 13751 ft | 404 kts | 99° |
| 2026-02-17 11:15 | 41.66228 | 12.47325 | 14585 ft | 410 kts | 99° |
| 2026-02-17 11:15 | 41.65578 | 12.51067 | 15420 ft | 416 kts | 98° |
| 2026-02-17 11:15 | 41.64915 | 12.54881 | 16246 ft | 422 kts | 98° |
| 2026-02-17 11:16 | 41.64290 | 12.58468 | 17026 ft | 427 kts | 98° |
| 2026-02-17 11:16 | 41.63617 | 12.62325 | 17864 ft | 433 kts | 98° |
| 2026-02-17 11:16 | 41.62924 | 12.66290 | 18564 ft | 440 kts | 98° |
| 2026-02-17 11:16 | 41.62221 | 12.70309 | 19151 ft | 449 kts | 97° |
| 2026-02-17 11:17 | 41.61502 | 12.74411 | 19727 ft | 457 kts | 97° |
| 2026-02-17 11:17 | 41.60778 | 12.78534 | 20376 ft | 463 kts | 97° |
| 2026-02-17 11:17 | 41.60034 | 12.82745 | 21109 ft | 467 kts | 97° |
| 2026-02-17 11:17 | 41.59280 | 12.87011 | 21697 ft | 475 kts | 96° |
| 2026-02-17 11:18 | 41.58522 | 12.91294 | 22238 ft | 483 kts | 96° |
| 2026-02-17 11:18 | 41.57740 | 12.95698 | 22792 ft | 491 kts | 96° |
| 2026-02-17 11:18 | 41.56984 | 12.99946 | 23357 ft | 497 kts | 96° |
| 2026-02-17 11:19 | 41.55363 | 13.09032 | 23755 ft | 503 kts | 96° |
| 2026-02-17 11:19 | 41.54547 | 13.13556 | 23741 ft | 499 kts | 96° |
| 2026-02-17 11:19 | 41.53741 | 13.17991 | 23726 ft | 495 kts | 97° |
| 2026-02-17 11:19 | 41.52929 | 13.22459 | 23704 ft | 495 kts | 97° |
| 2026-02-17 11:20 | 41.52119 | 13.26932 | 23702 ft | 494 kts | 97° |
| 2026-02-17 11:20 | 41.51312 | 13.31396 | 23702 ft | 494 kts | 97° |
| 2026-02-17 11:20 | 41.50507 | 13.35852 | 23703 ft | 494 kts | 97° |
| 2026-02-17 11:20 | 41.49697 | 13.40314 | 23701 ft | 494 kts | 97° |
| 2026-02-17 11:21 | 41.48896 | 13.44711 | 23704 ft | 494 kts | 97° |
| 2026-02-17 11:21 | 41.48080 | 13.49173 | 23720 ft | 495 kts | 97° |
| 2026-02-17 11:21 | 41.47265 | 13.53626 | 23735 ft | 494 kts | 98° |
| 2026-02-17 11:21 | 41.46444 | 13.58092 | 23713 ft | 493 kts | 98° |
| 2026-02-17 11:22 | 41.45626 | 13.62532 | 23730 ft | 492 kts | 98° |
| 2026-02-17 11:22 | 41.44808 | 13.66956 | 23697 ft | 491 kts | 98° |
| 2026-02-17 11:22 | 41.43824 | 13.71364 | 23924 ft | 499 kts | 103° |
| 2026-02-17 11:23 | 41.41541 | 13.80137 | 24951 ft | 508 kts | 103° |
| 2026-02-17 11:23 | 41.40364 | 13.84609 | 25424 ft | 514 kts | 103° |
| 2026-02-17 11:23 | 41.39180 | 13.89121 | 26040 ft | 516 kts | 104° |
| 2026-02-17 11:23 | 41.37992 | 13.93658 | 26610 ft | 520 kts | 104° |
| 2026-02-17 11:24 | 41.36797 | 13.98246 | 26988 ft | 527 kts | 104° |
| 2026-02-17 11:24 | 41.35621 | 14.02763 | 27330 ft | 533 kts | 104° |
| 2026-02-17 11:24 | 41.34401 | 14.07447 | 27664 ft | 538 kts | 104° |
| 2026-02-17 11:24 | 41.33773 | 14.09851 | 27869 ft | 541 kts | 104° |
| 2026-02-17 11:25 | 41.32527 | 14.14614 | 28288 ft | 545 kts | 104° |
| 2026-02-17 11:25 | 41.31273 | 14.19390 | 28633 ft | 550 kts | 103° |
| 2026-02-17 11:25 | 41.30002 | 14.24230 | 28929 ft | 555 kts | 104° |
| 2026-02-17 11:25 | 41.28724 | 14.29080 | 29456 ft | 556 kts | 104° |
| 2026-02-17 11:26 | 41.27453 | 14.33892 | 29737 ft | 560 kts | 104° |
| 2026-02-17 11:26 | 41.26153 | 14.38801 | 30013 ft | 564 kts | 104° |
| 2026-02-17 11:26 | 41.24847 | 14.43728 | 30372 ft | 564 kts | 104° |
| 2026-02-17 11:27 | 41.22237 | 14.53540 | 31217 ft | 562 kts | 104° |
| 2026-02-17 11:27 | 41.20925 | 14.58463 | 31631 ft | 562 kts | 104° |
| 2026-02-17 11:27 | 41.19646 | 14.63299 | 32049 ft | 561 kts | 103° |
| 2026-02-17 11:27 | 41.18537 | 14.68252 | 32459 ft | 556 kts | 97° |
| 2026-02-17 11:28 | 41.17738 | 14.73269 | 32750 ft | 555 kts | 95° |
| 2026-02-17 11:28 | 41.16262 | 14.83405 | 32701 ft | 557 kts | 95° |
| 2026-02-17 11:29 | 41.14673 | 14.93359 | 32720 ft | 552 kts | 96° |
| 2026-02-17 11:29 | 41.13069 | 15.03170 | 32701 ft | 549 kts | 96° |
| 2026-02-17 11:30 | 41.11457 | 15.13068 | 32684 ft | 548 kts | 96° |
| 2026-02-17 11:30 | 41.09851 | 15.22897 | 32701 ft | 548 kts | 96° |
| 2026-02-17 11:31 | 41.07423 | 15.37703 | 32692 ft | 550 kts | 97° |
| 2026-02-17 11:31 | 41.05782 | 15.47617 | 32683 ft | 550 kts | 97° |
| 2026-02-17 11:32 | 41.04136 | 15.57523 | 32671 ft | 549 kts | 97° |
| 2026-02-17 11:32 | 41.02475 | 15.67360 | 32675 ft | 549 kts | 100° |
| 2026-02-17 11:33 | 41.00002 | 15.76918 | 32667 ft | 552 kts | 110° |
| 2026-02-17 11:33 | 40.96893 | 15.86236 | 32644 ft | 551 kts | 111° |
| 2026-02-17 11:34 | 40.93799 | 15.95504 | 32630 ft | 549 kts | 110° |
| 2026-02-17 11:35 | 40.89289 | 16.09232 | 32622 ft | 547 kts | 110° |
| 2026-02-17 11:35 | 40.86286 | 16.18389 | 32613 ft | 545 kts | 110° |
| 2026-02-17 11:36 | 40.83250 | 16.27604 | 32600 ft | 544 kts | 110° |
| 2026-02-17 11:36 | 40.80230 | 16.36726 | 32596 ft | 545 kts | 111° |
| 2026-02-17 11:37 | 40.77183 | 16.45904 | 32582 ft | 545 kts | 111° |
| 2026-02-17 11:37 | 40.74145 | 16.55022 | 32564 ft | 546 kts | 111° |
| 2026-02-17 11:38 | 40.71075 | 16.64206 | 32566 ft | 546 kts | 111° |
| 2026-02-17 11:38 | 40.67998 | 16.73383 | 32584 ft | 546 kts | 111° |
| 2026-02-17 11:39 | 40.63388 | 16.87071 | 32557 ft | 545 kts | 111° |
| 2026-02-17 11:39 | 40.60301 | 16.96201 | 32544 ft | 544 kts | 111° |
| 2026-02-17 11:40 | 40.57299 | 17.05052 | 32560 ft | 543 kts | 112° |
| 2026-02-17 11:40 | 40.54233 | 17.14066 | 32567 ft | 543 kts | 112° |
| 2026-02-17 11:41 | 40.51146 | 17.23114 | 32572 ft | 542 kts | 112° |
| 2026-02-17 11:41 | 40.48051 | 17.32155 | 32583 ft | 541 kts | 112° |
| 2026-02-17 11:42 | 40.44579 | 17.40944 | 32596 ft | 543 kts | 122° |
| 2026-02-17 11:43 | 40.37482 | 17.52386 | 32572 ft | 540 kts | 134° |
| 2026-02-17 11:43 | 40.32287 | 17.59505 | 32548 ft | 539 kts | 134° |
| 2026-02-17 11:44 | 40.27110 | 17.66637 | 32537 ft | 539 kts | 134° |
| 2026-02-17 11:44 | 40.21989 | 17.73753 | 32536 ft | 539 kts | 134° |
| 2026-02-17 11:45 | 40.16848 | 17.80904 | 32482 ft | 538 kts | 134° |
| 2026-02-17 11:45 | 40.11697 | 17.88049 | 32541 ft | 538 kts | 134° |
| 2026-02-17 11:46 | 40.06572 | 17.95135 | 32533 ft | 539 kts | 134° |
| 2026-02-17 11:46 | 40.01506 | 18.02120 | 32540 ft | 544 kts | 134° |
| 2026-02-17 11:47 | 39.96270 | 18.09321 | 32537 ft | 557 kts | 134° |
| 2026-02-17 11:47 | 39.93583 | 18.13011 | 32534 ft | 562 kts | 134° |
| 2026-02-17 11:47 | 39.88188 | 18.20410 | 32488 ft | 562 kts | 134° |
| 2026-02-17 11:48 | 39.82803 | 18.27777 | 32502 ft | 561 kts | 135° |
| 2026-02-17 11:48 | 39.77480 | 18.35038 | 32510 ft | 560 kts | 135° |
| 2026-02-17 11:49 | 39.72738 | 18.41493 | 32507 ft | 560 kts | 135° |
| 2026-02-17 11:49 | 39.70079 | 18.45107 | 32677 ft | 557 kts | 135° |
| 2026-02-17 11:49 | 39.67401 | 18.48742 | 33145 ft | 553 kts | 135° |
| 2026-02-17 11:50 | 39.64750 | 18.52337 | 33626 ft | 549 kts | 135° |
| 2026-02-17 11:50 | 39.62117 | 18.55903 | 34003 ft | 545 kts | 135° |
| 2026-02-17 11:50 | 39.59487 | 18.59460 | 34286 ft | 545 kts | 135° |
| 2026-02-17 11:51 | 39.54223 | 18.66566 | 34470 ft | 551 kts | 135° |
| 2026-02-17 11:51 | 39.48923 | 18.73706 | 34499 ft | 546 kts | 135° |
| 2026-02-17 11:52 | 39.43694 | 18.80735 | 34518 ft | 542 kts | 136° |
| 2026-02-17 11:52 | 39.38459 | 18.87755 | 34514 ft | 541 kts | 136° |
| 2026-02-17 11:53 | 39.33216 | 18.94770 | 34486 ft | 541 kts | 136° |
| 2026-02-17 11:53 | 39.28370 | 19.01999 | 34517 ft | 544 kts | 127° |
| 2026-02-17 11:54 | 39.24322 | 19.10299 | 34531 ft | 547 kts | 121° |
| 2026-02-17 11:54 | 39.20425 | 19.18763 | 34520 ft | 549 kts | 122° |
| 2026-02-17 11:55 | 39.14513 | 19.31379 | 34506 ft | 549 kts | 122° |
| 2026-02-17 11:55 | 39.10526 | 19.39777 | 34503 ft | 548 kts | 122° |
| 2026-02-17 11:56 | 39.06539 | 19.48151 | 34516 ft | 547 kts | 123° |
| 2026-02-17 11:56 | 39.03220 | 19.55111 | 34505 ft | 546 kts | 123° |
| 2026-02-17 11:57 | 38.99275 | 19.63369 | 34503 ft | 545 kts | 123° |
| 2026-02-17 11:57 | 38.95303 | 19.71661 | 34503 ft | 544 kts | 123° |
| 2026-02-17 11:58 | 38.91327 | 19.79941 | 34502 ft | 543 kts | 123° |
| 2026-02-17 11:59 | 38.85385 | 19.92276 | 34501 ft | 542 kts | 123° |
| 2026-02-17 11:59 | 38.81474 | 20.00366 | 34495 ft | 541 kts | 123° |
| 2026-02-17 12:00 | 38.77497 | 20.08575 | 34493 ft | 541 kts | 123° |
| 2026-02-17 12:00 | 38.73514 | 20.16775 | 34505 ft | 540 kts | 124° |
| 2026-02-17 12:01 | 38.69559 | 20.24896 | 34495 ft | 539 kts | 124° |
| 2026-02-17 12:01 | 38.65587 | 20.33030 | 34472 ft | 538 kts | 124° |
| 2026-02-17 12:02 | 38.61604 | 20.41167 | 34485 ft | 538 kts | 124° |
| 2026-02-17 12:02 | 38.57638 | 20.49250 | 34485 ft | 539 kts | 124° |
| 2026-02-17 12:03 | 38.51635 | 20.61445 | 34482 ft | 539 kts | 124° |
| 2026-02-17 12:03 | 38.47656 | 20.69503 | 34482 ft | 540 kts | 124° |
| 2026-02-17 12:04 | 38.43638 | 20.77622 | 34481 ft | 540 kts | 124° |
| 2026-02-17 12:04 | 38.39639 | 20.85686 | 34479 ft | 539 kts | 125° |
| 2026-02-17 12:05 | 38.35528 | 20.93681 | 34485 ft | 537 kts | 130° |
| 2026-02-17 12:05 | 38.30917 | 21.00760 | 34462 ft | 535 kts | 134° |
| 2026-02-17 12:06 | 38.26074 | 21.07895 | 34489 ft | 536 kts | 134° |
| 2026-02-17 12:07 | 38.18767 | 21.18760 | 34510 ft | 539 kts | 134° |
| 2026-02-17 12:07 | 38.13929 | 21.26000 | 34495 ft | 539 kts | 134° |
| 2026-02-17 12:08 | 38.09621 | 21.32437 | 34498 ft | 539 kts | 134° |
| 2026-02-17 12:08 | 38.04753 | 21.39687 | 34497 ft | 538 kts | 134° |
| 2026-02-17 12:09 | 37.99935 | 21.46845 | 34498 ft | 538 kts | 134° |
| 2026-02-17 12:09 | 37.95031 | 21.54108 | 34501 ft | 541 kts | 134° |
| 2026-02-17 12:10 | 37.90163 | 21.61307 | 34528 ft | 540 kts | 134° |
| 2026-02-17 12:10 | 37.85281 | 21.68511 | 34532 ft | 540 kts | 135° |
| 2026-02-17 12:11 | 37.77917 | 21.79345 | 34525 ft | 542 kts | 135° |
| 2026-02-17 12:11 | 37.72994 | 21.86570 | 34531 ft | 540 kts | 135° |
| 2026-02-17 12:12 | 37.68116 | 21.93713 | 34538 ft | 540 kts | 135° |
| 2026-02-17 12:12 | 37.63241 | 22.00832 | 34555 ft | 542 kts | 135° |
| 2026-02-17 12:13 | 37.58320 | 22.08004 | 34545 ft | 545 kts | 135° |
| 2026-02-17 12:13 | 37.53335 | 22.15255 | 34516 ft | 546 kts | 135° |
| 2026-02-17 12:14 | 37.48364 | 22.22473 | 34531 ft | 544 kts | 135° |
| 2026-02-17 12:15 | 37.40972 | 22.33271 | 34547 ft | 547 kts | 135° |
| 2026-02-17 12:15 | 37.36733 | 22.41191 | 34549 ft | 549 kts | 125° |
| 2026-02-17 12:16 | 37.32796 | 22.49438 | 34519 ft | 548 kts | 125° |
| 2026-02-17 12:16 | 37.28837 | 22.57634 | 34519 ft | 548 kts | 125° |
| 2026-02-17 12:17 | 37.24834 | 22.65792 | 34520 ft | 548 kts | 126° |
| 2026-02-17 12:17 | 37.20842 | 22.73881 | 34516 ft | 547 kts | 126° |
| 2026-02-17 12:18 | 37.16807 | 22.82039 | 34513 ft | 546 kts | 126° |
| 2026-02-17 12:18 | 37.12821 | 22.90086 | 34514 ft | 544 kts | 126° |
| 2026-02-17 12:19 | 37.06872 | 23.02071 | 34510 ft | 542 kts | 126° |
| 2026-02-17 12:19 | 37.02908 | 23.10028 | 34514 ft | 540 kts | 126° |
| 2026-02-17 12:20 | 36.98929 | 23.17997 | 34514 ft | 541 kts | 127° |
| 2026-02-17 12:20 | 36.94915 | 23.26013 | 34523 ft | 545 kts | 127° |
| 2026-02-17 12:21 | 36.90897 | 23.34019 | 34536 ft | 548 kts | 127° |
| 2026-02-17 12:21 | 36.86819 | 23.42127 | 34539 ft | 550 kts | 127° |
| 2026-02-17 12:22 | 36.82734 | 23.50234 | 34534 ft | 551 kts | 127° |
| 2026-02-17 12:23 | 36.76614 | 23.62342 | 34548 ft | 551 kts | 127° |
| 2026-02-17 12:23 | 36.72517 | 23.70423 | 34548 ft | 550 kts | 127° |
| 2026-02-17 12:24 | 36.68445 | 23.78434 | 34544 ft | 549 kts | 127° |
| 2026-02-17 12:24 | 36.64354 | 23.86462 | 34550 ft | 547 kts | 128° |
| 2026-02-17 12:25 | 36.60252 | 23.94488 | 34564 ft | 553 kts | 128° |
| 2026-02-17 12:25 | 36.56129 | 24.02532 | 34582 ft | 559 kts | 128° |
| 2026-02-17 12:26 | 36.51945 | 24.10691 | 34575 ft | 557 kts | 128° |
| 2026-02-17 12:26 | 36.47787 | 24.18782 | 34585 ft | 554 kts | 128° |
| 2026-02-17 12:27 | 36.41578 | 24.30815 | 34613 ft | 553 kts | 128° |
| 2026-02-17 12:27 | 36.37416 | 24.38856 | 34562 ft | 552 kts | 128° |
| 2026-02-17 12:28 | 36.33269 | 24.46852 | 34601 ft | 549 kts | 128° |
| 2026-02-17 12:28 | 36.29130 | 24.54815 | 34620 ft | 548 kts | 128° |
| 2026-02-17 12:29 | 36.25008 | 24.62720 | 34594 ft | 550 kts | 128° |
| 2026-02-17 12:29 | 36.20833 | 24.70708 | 34620 ft | 554 kts | 128° |
| 2026-02-17 12:30 | 36.16616 | 24.78761 | 34643 ft | 557 kts | 128° |
| 2026-02-17 12:31 | 36.10282 | 24.90824 | 34651 ft | 560 kts | 128° |
| 2026-02-17 12:31 | 36.06017 | 24.98924 | 34649 ft | 561 kts | 128° |
| 2026-02-17 12:32 | 36.01823 | 25.06871 | 34655 ft | 559 kts | 128° |
| 2026-02-17 12:32 | 35.97577 | 25.14897 | 34652 ft | 557 kts | 128° |
| 2026-02-17 12:33 | 35.93352 | 25.22862 | 34675 ft | 558 kts | 129° |
| 2026-02-17 12:33 | 35.89094 | 25.30871 | 34660 ft | 556 kts | 129° |
| 2026-02-17 12:34 | 35.84845 | 25.38846 | 34600 ft | 554 kts | 129° |
| 2026-02-17 12:34 | 35.80631 | 25.46736 | 34660 ft | 555 kts | 129° |
| 2026-02-17 12:35 | 35.74217 | 25.58705 | 34672 ft | 559 kts | 129° |
| 2026-02-17 12:35 | 35.69943 | 25.66661 | 34655 ft | 560 kts | 129° |
| 2026-02-17 12:36 | 35.65640 | 25.74656 | 34664 ft | 559 kts | 129° |
| 2026-02-17 12:36 | 35.61328 | 25.82651 | 34668 ft | 558 kts | 129° |
| 2026-02-17 12:37 | 35.57059 | 25.90545 | 34674 ft | 557 kts | 129° |
| 2026-02-17 12:37 | 35.52766 | 25.98464 | 34672 ft | 555 kts | 129° |
| 2026-02-17 12:38 | 35.48534 | 26.06254 | 34688 ft | 553 kts | 129° |
| 2026-02-17 12:39 | 35.42146 | 26.17977 | 34695 ft | 552 kts | 129° |
| 2026-02-17 12:39 | 35.37873 | 26.25796 | 34702 ft | 551 kts | 129° |
| 2026-02-17 12:40 | 35.34324 | 26.32280 | 34705 ft | 550 kts | 129° |
| 2026-02-17 12:40 | 35.30050 | 26.40070 | 34721 ft | 549 kts | 129° |
| 2026-02-17 12:41 | 35.25802 | 26.47795 | 34719 ft | 549 kts | 129° |
| 2026-02-17 12:41 | 35.21517 | 26.55571 | 34738 ft | 550 kts | 129° |
| 2026-02-17 12:42 | 35.17263 | 26.63274 | 34748 ft | 548 kts | 129° |
| 2026-02-17 12:42 | 35.12992 | 26.70992 | 34737 ft | 547 kts | 129° |
| 2026-02-17 12:43 | 35.06611 | 26.82489 | 34712 ft | 545 kts | 129° |
| 2026-02-17 12:43 | 35.02341 | 26.90161 | 34757 ft | 543 kts | 129° |
| 2026-02-17 12:44 | 34.98100 | 26.97767 | 34764 ft | 542 kts | 129° |
| 2026-02-17 12:44 | 34.93946 | 27.05199 | 34771 ft | 541 kts | 129° |
| 2026-02-17 12:45 | 34.89702 | 27.12777 | 34791 ft | 540 kts | 129° |
| 2026-02-17 12:45 | 34.85482 | 27.20295 | 34781 ft | 539 kts | 129° |
| 2026-02-17 12:46 | 34.81238 | 27.27842 | 34800 ft | 537 kts | 129° |
| 2026-02-17 12:47 | 34.74932 | 27.39023 | 34813 ft | 535 kts | 130° |
| 2026-02-17 12:47 | 34.70712 | 27.46485 | 34797 ft | 535 kts | 130° |
| 2026-02-17 12:48 | 34.66495 | 27.53930 | 34767 ft | 532 kts | 130° |
| 2026-02-17 12:48 | 34.62317 | 27.61290 | 34812 ft | 530 kts | 130° |
| 2026-02-17 12:49 | 34.58120 | 27.68671 | 34824 ft | 530 kts | 130° |
| 2026-02-17 12:49 | 34.54034 | 27.76082 | 34828 ft | 533 kts | 125° |
| 2026-02-17 12:50 | 34.50797 | 27.84242 | 34836 ft | 539 kts | 116° |
| 2026-02-17 12:50 | 34.47930 | 27.92691 | 34836 ft | 540 kts | 116° |
| 2026-02-17 12:51 | 34.43635 | 28.05180 | 34830 ft | 541 kts | 117° |
| 2026-02-17 12:51 | 34.40690 | 28.13585 | 34828 ft | 540 kts | 117° |
| 2026-02-17 12:52 | 34.37761 | 28.21901 | 34837 ft | 539 kts | 117° |
| 2026-02-17 12:52 | 34.34816 | 28.30245 | 34837 ft | 538 kts | 117° |
| 2026-02-17 12:53 | 34.31884 | 28.38541 | 34829 ft | 537 kts | 118° |
| 2026-02-17 12:53 | 34.28959 | 28.46800 | 34849 ft | 536 kts | 118° |
| 2026-02-17 12:54 | 34.26014 | 28.55089 | 34854 ft | 535 kts | 118° |
| 2026-02-17 12:55 | 34.21587 | 28.67509 | 34843 ft | 535 kts | 119° |
| 2026-02-17 12:55 | 34.18654 | 28.75715 | 34852 ft | 534 kts | 119° |
| 2026-02-17 12:56 | 34.15703 | 28.83948 | 34868 ft | 533 kts | 119° |
| 2026-02-17 12:56 | 34.12750 | 28.92164 | 34868 ft | 532 kts | 119° |
| 2026-02-17 12:57 | 34.09842 | 29.00236 | 34870 ft | 530 kts | 120° |
| 2026-02-17 12:57 | 34.06909 | 29.08358 | 34872 ft | 529 kts | 120° |
| 2026-02-17 12:58 | 34.03955 | 29.16517 | 34879 ft | 529 kts | 120° |
| 2026-02-17 12:58 | 34.01016 | 29.24610 | 34880 ft | 528 kts | 120° |
| 2026-02-17 12:59 | 33.96608 | 29.36717 | 34881 ft | 526 kts | 120° |
| 2026-02-17 12:59 | 33.93653 | 29.44806 | 34887 ft | 525 kts | 120° |
| 2026-02-17 13:00 | 33.90715 | 29.52830 | 34894 ft | 525 kts | 121° |
| 2026-02-17 13:00 | 33.87775 | 29.60837 | 34889 ft | 526 kts | 121° |
| 2026-02-17 13:01 | 33.84805 | 29.68907 | 34898 ft | 526 kts | 121° |
| 2026-02-17 13:01 | 33.81843 | 29.76938 | 34899 ft | 527 kts | 121° |
| 2026-02-17 13:02 | 33.78855 | 29.85022 | 34889 ft | 528 kts | 121° |
| 2026-02-17 13:03 | 33.74372 | 29.97113 | 34915 ft | 530 kts | 121° |
| 2026-02-17 13:03 | 33.71436 | 30.05182 | 34909 ft | 532 kts | 120° |
| 2026-02-17 13:04 | 33.68603 | 30.13422 | 34888 ft | 534 kts | 119° |
| 2026-02-17 13:04 | 33.65792 | 30.21630 | 34918 ft | 534 kts | 119° |
| 2026-02-17 13:05 | 33.62927 | 30.29893 | 34924 ft | 535 kts | 120° |
| 2026-02-17 13:05 | 33.60044 | 30.38146 | 34924 ft | 536 kts | 120° |
| 2026-02-17 13:06 | 33.57172 | 30.46347 | 34918 ft | 536 kts | 120° |
| 2026-02-17 13:06 | 33.54276 | 30.54602 | 34929 ft | 536 kts | 120° |
| 2026-02-17 13:07 | 33.49943 | 30.66915 | 34933 ft | 536 kts | 120° |
| 2026-02-17 13:07 | 33.47037 | 30.75148 | 34937 ft | 535 kts | 120° |
| 2026-02-17 13:08 | 33.44130 | 30.83364 | 34936 ft | 535 kts | 120° |
| 2026-02-17 13:08 | 33.41168 | 30.91542 | 34935 ft | 531 kts | 124° |
| 2026-02-17 13:09 | 33.37440 | 30.98991 | 34926 ft | 518 kts | 135° |
| 2026-02-17 13:09 | 33.33008 | 31.05605 | 35021 ft | 516 kts | 137° |
| 2026-02-17 13:10 | 33.30734 | 31.08936 | 35277 ft | 515 kts | 137° |
| 2026-02-17 13:10 | 33.28481 | 31.12253 | 35629 ft | 512 kts | 137° |
| 2026-02-17 13:10 | 33.27001 | 31.14444 | 35856 ft | 509 kts | 137° |
| 2026-02-17 13:11 | 33.22288 | 31.21457 | 36677 ft | 501 kts | 137° |
| 2026-02-17 13:11 | 33.20110 | 31.24703 | 36953 ft | 500 kts | 137° |
| 2026-02-17 13:11 | 33.17919 | 31.27958 | 36917 ft | 503 kts | 137° |
| 2026-02-17 13:12 | 33.13549 | 31.34451 | 36940 ft | 498 kts | 137° |
| 2026-02-17 13:12 | 33.09239 | 31.40848 | 36952 ft | 495 kts | 137° |
| 2026-02-17 13:13 | 33.04926 | 31.47232 | 36953 ft | 493 kts | 137° |
| 2026-02-17 13:13 | 33.00612 | 31.53604 | 36939 ft | 493 kts | 137° |
| 2026-02-17 13:14 | 32.96310 | 31.59949 | 36954 ft | 493 kts | 137° |
| 2026-02-17 13:14 | 32.92019 | 31.66269 | 36965 ft | 493 kts | 137° |
| 2026-02-17 13:15 | 32.85531 | 31.75804 | 36968 ft | 493 kts | 137° |
| 2026-02-17 13:15 | 32.81204 | 31.82150 | 36944 ft | 494 kts | 138° |
| 2026-02-17 13:16 | 32.76865 | 31.88503 | 36967 ft | 494 kts | 138° |
| 2026-02-17 13:16 | 32.72548 | 31.94813 | 36975 ft | 495 kts | 138° |
| 2026-02-17 13:17 | 32.68245 | 32.01096 | 36974 ft | 495 kts | 138° |
| 2026-02-17 13:17 | 32.63773 | 32.07287 | 36971 ft | 487 kts | 144° |
| 2026-02-17 13:18 | 32.58689 | 32.12361 | 36969 ft | 473 kts | 154° |
| 2026-02-17 13:19 | 32.50636 | 32.19089 | 36941 ft | 472 kts | 154° |
| 2026-02-17 13:19 | 32.45263 | 32.23615 | 36975 ft | 473 kts | 154° |
| 2026-02-17 13:20 | 32.39905 | 32.28153 | 36983 ft | 473 kts | 154° |
| 2026-02-17 13:20 | 32.34572 | 32.32669 | 36983 ft | 473 kts | 154° |
| 2026-02-17 13:21 | 32.29199 | 32.37211 | 36980 ft | 473 kts | 155° |
| 2026-02-17 13:21 | 32.23835 | 32.41736 | 36987 ft | 473 kts | 155° |
| 2026-02-17 13:22 | 32.18510 | 32.46223 | 36983 ft | 472 kts | 155° |
| 2026-02-17 13:22 | 32.13143 | 32.50733 | 36986 ft | 472 kts | 155° |
| 2026-02-17 13:23 | 32.05124 | 32.57458 | 36992 ft | 473 kts | 155° |
| 2026-02-17 13:23 | 31.99754 | 32.61956 | 36962 ft | 473 kts | 155° |
| 2026-02-17 13:24 | 31.94377 | 32.66456 | 36994 ft | 473 kts | 156° |
| 2026-02-17 13:24 | 31.89021 | 32.70928 | 36973 ft | 473 kts | 156° |
| 2026-02-17 13:25 | 31.84554 | 32.74655 | 36995 ft | 473 kts | 156° |
| 2026-02-17 13:25 | 31.79174 | 32.79136 | 37014 ft | 473 kts | 156° |
| 2026-02-17 13:26 | 31.73816 | 32.83593 | 37010 ft | 473 kts | 156° |
| 2026-02-17 13:27 | 31.65725 | 32.90312 | 36986 ft | 473 kts | 157° |
| 2026-02-17 13:27 | 31.60381 | 32.94743 | 36992 ft | 473 kts | 157° |
| 2026-02-17 13:28 | 31.54992 | 32.99204 | 37008 ft | 472 kts | 158° |
| 2026-02-17 13:28 | 31.49715 | 33.03565 | 37012 ft | 472 kts | 158° |
| 2026-02-17 13:29 | 31.44333 | 33.08008 | 37015 ft | 472 kts | 158° |
| 2026-02-17 13:29 | 31.38949 | 33.12446 | 37017 ft | 472 kts | 158° |
| 2026-02-17 13:30 | 31.33480 | 33.16436 | 36982 ft | 459 kts | 164° |
| 2026-02-17 13:30 | 31.27850 | 33.19951 | 37013 ft | 458 kts | 165° |
| 2026-02-17 13:31 | 31.19422 | 33.25199 | 37020 ft | 458 kts | 165° |
| 2026-02-17 13:31 | 31.13789 | 33.28736 | 37021 ft | 458 kts | 165° |
| 2026-02-17 13:32 | 31.08203 | 33.32247 | 37028 ft | 458 kts | 165° |
| 2026-02-17 13:32 | 31.02584 | 33.35776 | 37027 ft | 458 kts | 165° |
| 2026-02-17 13:33 | 30.96967 | 33.39298 | 37031 ft | 457 kts | 165° |
| 2026-02-17 13:33 | 30.91389 | 33.42789 | 37031 ft | 457 kts | 165° |
| 2026-02-17 13:34 | 30.85816 | 33.46273 | 37032 ft | 456 kts | 165° |
| 2026-02-17 13:35 | 30.77406 | 33.51519 | 37047 ft | 457 kts | 165° |
| 2026-02-17 13:35 | 30.71810 | 33.55006 | 37002 ft | 457 kts | 165° |
| 2026-02-17 13:36 | 30.66209 | 33.58491 | 37021 ft | 456 kts | 165° |
| 2026-02-17 13:36 | 30.60603 | 33.61976 | 37035 ft | 456 kts | 165° |
| 2026-02-17 13:37 | 30.55028 | 33.65436 | 37038 ft | 455 kts | 165° |
| 2026-02-17 13:37 | 30.49455 | 33.68888 | 36991 ft | 455 kts | 165° |
| 2026-02-17 13:38 | 30.43872 | 33.72347 | 36988 ft | 452 kts | 166° |
| 2026-02-17 13:38 | 30.38328 | 33.75775 | 37018 ft | 450 kts | 166° |
| 2026-02-17 13:39 | 30.30055 | 33.80878 | 37025 ft | 449 kts | 166° |
| 2026-02-17 13:39 | 30.24559 | 33.84263 | 37027 ft | 449 kts | 166° |
| 2026-02-17 13:40 | 30.19042 | 33.87657 | 37027 ft | 449 kts | 166° |
| 2026-02-17 13:40 | 30.13538 | 33.91039 | 36999 ft | 448 kts | 166° |
| 2026-02-17 13:41 | 30.08015 | 33.94429 | 37014 ft | 449 kts | 166° |
| 2026-02-17 13:41 | 30.02529 | 33.97792 | 37027 ft | 448 kts | 166° |
| 2026-02-17 13:42 | 29.97063 | 34.01138 | 37012 ft | 449 kts | 166° |
| 2026-02-17 13:43 | 29.88783 | 34.06199 | 37012 ft | 450 kts | 166° |
| 2026-02-17 13:43 | 29.83243 | 34.09581 | 37003 ft | 449 kts | 166° |
| 2026-02-17 13:44 | 29.77712 | 34.12953 | 37008 ft | 450 kts | 166° |
| 2026-02-17 13:44 | 29.72186 | 34.16319 | 37010 ft | 451 kts | 166° |
| 2026-02-17 13:45 | 29.66630 | 34.19730 | 36997 ft | 456 kts | 161° |
| 2026-02-17 13:45 | 29.64111 | 34.22089 | 36973 ft | 488 kts | 145° |
| 2026-02-17 13:45 | 29.62092 | 34.25369 | 37004 ft | 518 kts | 130° |
| 2026-02-17 13:45 | 29.60730 | 34.29316 | 36995 ft | 546 kts | 114° |
| 2026-02-17 13:46 | 29.60286 | 34.33755 | 37022 ft | 570 kts | 99° |
| 2026-02-17 13:46 | 29.60614 | 34.42921 | 37003 ft | 578 kts | 95° |
| 2026-02-17 13:47 | 29.60189 | 34.56500 | 36987 ft | 545 kts | 118° |
| 2026-02-17 13:47 | 29.58786 | 34.60434 | 37017 ft | 521 kts | 131° |
| 2026-02-17 13:47 | 29.56860 | 34.63875 | 36979 ft | 503 kts | 142° |
| 2026-02-17 13:48 | 29.54516 | 34.66715 | 36979 ft | 474 kts | 155° |
| 2026-02-17 13:48 | 29.51914 | 34.69003 | 36997 ft | 471 kts | 156° |
| 2026-02-17 13:48 | 29.46872 | 34.73933 | 36930 ft | 496 kts | 143° |
| 2026-02-17 13:49 | 29.44863 | 34.77275 | 36979 ft | 521 kts | 130° |
| 2026-02-17 13:49 | 29.43437 | 34.81209 | 37007 ft | 544 kts | 116° |
| 2026-02-17 13:49 | 29.42742 | 34.85573 | 36978 ft | 563 kts | 106° |
| 2026-02-17 13:49 | 29.42346 | 34.90000 | 36978 ft | 568 kts | 103° |
| 2026-02-17 13:50 | 29.42425 | 34.99210 | 36966 ft | 584 kts | 93° |
| 2026-02-17 13:51 | 29.44899 | 35.12973 | 36978 ft | 597 kts | 79° |
| 2026-02-17 13:51 | 29.47215 | 35.22052 | 37004 ft | 594 kts | 79° |
| 2026-02-17 13:52 | 29.49429 | 35.31185 | 36987 ft | 592 kts | 80° |
| 2026-02-17 13:52 | 29.51537 | 35.40293 | 37003 ft | 592 kts | 81° |
| 2026-02-17 13:53 | 29.53665 | 35.49447 | 37000 ft | 592 kts | 80° |
| 2026-02-17 13:53 | 29.55808 | 35.58513 | 36984 ft | 590 kts | 80° |
| 2026-02-17 13:54 | 29.57952 | 35.67610 | 37003 ft | 589 kts | 80° |
| 2026-02-17 13:54 | 29.60074 | 35.76721 | 36997 ft | 589 kts | 80° |
| 2026-02-17 13:55 | 29.62735 | 35.90406 | 36996 ft | 584 kts | 86° |
| 2026-02-17 13:55 | 29.64175 | 35.99613 | 36998 ft | 584 kts | 86° |
| 2026-02-17 13:56 | 29.65612 | 36.08636 | 36994 ft | 585 kts | 85° |
| 2026-02-17 13:56 | 29.67117 | 36.17857 | 36987 ft | 585 kts | 85° |
| 2026-02-17 13:57 | 29.68607 | 36.27010 | 36983 ft | 586 kts | 85° |
| 2026-02-17 13:57 | 29.70099 | 36.36264 | 36984 ft | 588 kts | 86° |
| 2026-02-17 13:58 | 29.71602 | 36.45544 | 36981 ft | 590 kts | 85° |
| 2026-02-17 13:59 | 29.73861 | 36.59470 | 36979 ft | 591 kts | 86° |
| 2026-02-17 13:59 | 29.74423 | 36.68721 | 36986 ft | 577 kts | 100° |
| 2026-02-17 14:00 | 29.73582 | 36.77774 | 36962 ft | 560 kts | 112° |
| 2026-02-17 14:00 | 29.71802 | 36.86463 | 36994 ft | 557 kts | 114° |
| 2026-02-17 14:01 | 29.69982 | 36.95137 | 36981 ft | 557 kts | 113° |
| 2026-02-17 14:01 | 29.68243 | 37.03682 | 36986 ft | 556 kts | 112° |
| 2026-02-17 14:02 | 29.66504 | 37.12364 | 36992 ft | 556 kts | 112° |
| 2026-02-17 14:02 | 29.64772 | 37.20992 | 36970 ft | 555 kts | 112° |
| 2026-02-17 14:03 | 29.62154 | 37.33923 | 36977 ft | 554 kts | 112° |
| 2026-02-17 14:03 | 29.60392 | 37.42576 | 36990 ft | 555 kts | 112° |
| 2026-02-17 14:04 | 29.58639 | 37.51163 | 36972 ft | 555 kts | 112° |
| 2026-02-17 14:04 | 29.56866 | 37.59820 | 36984 ft | 555 kts | 112° |
| 2026-02-17 14:05 | 29.55099 | 37.68413 | 36993 ft | 556 kts | 112° |
| 2026-02-17 14:05 | 29.53314 | 37.77066 | 36984 ft | 555 kts | 111° |
| 2026-02-17 14:06 | 29.51536 | 37.85655 | 36998 ft | 555 kts | 111° |
| 2026-02-17 14:07 | 29.48842 | 37.98621 | 36957 ft | 554 kts | 111° |
| 2026-02-17 14:07 | 29.47220 | 38.07086 | 36985 ft | 555 kts | 109° |
| 2026-02-17 14:08 | 29.45728 | 38.15795 | 37003 ft | 555 kts | 108° |
| 2026-02-17 14:08 | 29.44226 | 38.24492 | 36992 ft | 554 kts | 108° |
| 2026-02-17 14:09 | 29.42685 | 38.33151 | 37001 ft | 553 kts | 108° |
| 2026-02-17 14:09 | 29.41138 | 38.41729 | 37005 ft | 552 kts | 109° |
| 2026-02-17 14:10 | 29.39568 | 38.50406 | 37016 ft | 557 kts | 109° |
| 2026-02-17 14:10 | 29.37983 | 38.59135 | 37006 ft | 567 kts | 109° |
| 2026-02-17 14:11 | 29.35559 | 38.72485 | 36992 ft | 570 kts | 108° |
| 2026-02-17 14:11 | 29.33948 | 38.81317 | 37007 ft | 569 kts | 108° |
| 2026-02-17 14:12 | 29.32317 | 38.90208 | 36983 ft | 568 kts | 108° |
| 2026-02-17 14:12 | 29.30562 | 38.99000 | 37002 ft | 564 kts | 110° |
| 2026-02-17 14:13 | 29.28727 | 39.07566 | 37007 ft | 563 kts | 110° |
| 2026-02-17 14:13 | 29.26864 | 39.16285 | 37003 ft | 562 kts | 110° |
| 2026-02-17 14:14 | 29.25336 | 39.23521 | 37005 ft | 561 kts | 109° |
| 2026-02-17 14:15 | 29.22590 | 39.36547 | 37001 ft | 559 kts | 109° |
| 2026-02-17 14:15 | 29.20762 | 39.45166 | 37009 ft | 558 kts | 109° |
| 2026-02-17 14:16 | 29.18923 | 39.53806 | 37014 ft | 558 kts | 110° |
| 2026-02-17 14:16 | 29.17077 | 39.62444 | 37024 ft | 557 kts | 110° |
| 2026-02-17 14:17 | 29.15245 | 39.70993 | 37037 ft | 556 kts | 110° |
| 2026-02-17 14:17 | 29.13395 | 39.79596 | 37030 ft | 556 kts | 110° |
| 2026-02-17 14:18 | 29.11546 | 39.88173 | 37032 ft | 555 kts | 110° |
| 2026-02-17 14:18 | 29.09938 | 39.96871 | 37041 ft | 559 kts | 106° |
| 2026-02-17 14:19 | 29.07937 | 40.09895 | 37031 ft | 559 kts | 105° |
| 2026-02-17 14:19 | 29.06576 | 40.18596 | 37041 ft | 558 kts | 105° |
| 2026-02-17 14:20 | 29.05178 | 40.27326 | 37029 ft | 558 kts | 105° |
| 2026-02-17 14:20 | 29.03775 | 40.36014 | 37046 ft | 557 kts | 105° |
| 2026-02-17 14:21 | 29.02367 | 40.44725 | 37054 ft | 557 kts | 105° |
| 2026-02-17 14:21 | 29.00954 | 40.53440 | 37043 ft | 556 kts | 105° |
| 2026-02-17 14:22 | 28.98838 | 40.66427 | 37054 ft | 555 kts | 105° |
| 2026-02-17 14:23 | 28.96710 | 40.79398 | 37056 ft | 555 kts | 105° |
| 2026-02-17 14:23 | 28.95281 | 40.88081 | 37057 ft | 555 kts | 105° |
| 2026-02-17 14:24 | 28.93860 | 40.96683 | 37055 ft | 554 kts | 105° |
| 2026-02-17 14:24 | 28.92440 | 41.05248 | 37057 ft | 554 kts | 105° |
| 2026-02-17 14:25 | 28.90997 | 41.13910 | 37043 ft | 554 kts | 105° |
| 2026-02-17 14:25 | 28.89556 | 41.22526 | 37044 ft | 554 kts | 105° |
| 2026-02-17 14:26 | 28.88101 | 41.31191 | 37046 ft | 554 kts | 105° |
| 2026-02-17 14:27 | 28.85924 | 41.44096 | 37038 ft | 553 kts | 105° |
| 2026-02-17 14:27 | 28.84458 | 41.52746 | 37044 ft | 553 kts | 105° |
| 2026-02-17 14:28 | 28.83001 | 41.61320 | 37038 ft | 553 kts | 105° |
| 2026-02-17 14:28 | 28.81530 | 41.69944 | 37042 ft | 552 kts | 105° |
| 2026-02-17 14:29 | 28.80057 | 41.78550 | 37018 ft | 552 kts | 105° |
| 2026-02-17 14:29 | 28.78589 | 41.87101 | 37033 ft | 551 kts | 105° |
| 2026-02-17 14:30 | 28.77106 | 41.95694 | 37031 ft | 550 kts | 105° |
| 2026-02-17 14:31 | 28.74159 | 42.12669 | 37035 ft | 549 kts | 104° |
| 2026-02-17 14:31 | 28.72679 | 42.21152 | 37022 ft | 548 kts | 104° |
| 2026-02-17 14:32 | 28.71184 | 42.29682 | 37030 ft | 548 kts | 105° |
| 2026-02-17 14:32 | 28.69685 | 42.38206 | 37032 ft | 548 kts | 105° |
| 2026-02-17 14:33 | 28.68182 | 42.46718 | 37023 ft | 548 kts | 104° |
| 2026-02-17 14:33 | 28.65928 | 42.59431 | 37032 ft | 547 kts | 104° |
| 2026-02-17 14:34 | 28.64017 | 42.67814 | 37041 ft | 542 kts | 113° |
| 2026-02-17 14:35 | 28.59226 | 42.79308 | 37033 ft | 535 kts | 122° |
| 2026-02-17 14:35 | 28.55651 | 42.86755 | 37041 ft | 535 kts | 122° |
| 2026-02-17 14:36 | 28.52129 | 42.94183 | 37019 ft | 536 kts | 122° |
| 2026-02-17 14:36 | 28.48672 | 43.01540 | 37041 ft | 536 kts | 122° |
| 2026-02-17 14:37 | 28.45158 | 43.09021 | 37023 ft | 535 kts | 122° |
| 2026-02-17 14:37 | 28.41659 | 43.16449 | 37032 ft | 535 kts | 122° |
| 2026-02-17 14:38 | 28.38136 | 43.23908 | 37021 ft | 535 kts | 122° |
| 2026-02-17 14:38 | 28.34604 | 43.31370 | 37029 ft | 535 kts | 122° |
| 2026-02-17 14:39 | 28.29330 | 43.42492 | 37028 ft | 535 kts | 122° |
| 2026-02-17 14:39 | 28.25824 | 43.49869 | 37027 ft | 534 kts | 122° |
| 2026-02-17 14:40 | 28.22287 | 43.57301 | 37031 ft | 534 kts | 122° |
| 2026-02-17 14:41 | 28.16969 | 43.68399 | 37030 ft | 533 kts | 122° |
| 2026-02-17 14:41 | 28.13415 | 43.75724 | 37035 ft | 533 kts | 122° |
| 2026-02-17 14:42 | 28.09850 | 43.83069 | 37035 ft | 533 kts | 122° |
| 2026-02-17 14:42 | 28.06272 | 43.90438 | 37029 ft | 532 kts | 121° |
| 2026-02-17 14:43 | 28.01025 | 44.01230 | 37044 ft | 530 kts | 121° |
| 2026-02-17 14:43 | 27.97462 | 44.08539 | 37040 ft | 529 kts | 121° |
| 2026-02-17 14:44 | 27.93905 | 44.15830 | 37048 ft | 528 kts | 121° |
| 2026-02-17 14:44 | 27.90409 | 44.23092 | 37049 ft | 528 kts | 120° |
| 2026-02-17 14:45 | 27.86906 | 44.30399 | 37050 ft | 527 kts | 120° |
| 2026-02-17 14:45 | 27.83396 | 44.37697 | 37058 ft | 527 kts | 120° |
| 2026-02-17 14:46 | 27.79914 | 44.44912 | 37055 ft | 526 kts | 120° |
| 2026-02-17 14:47 | 27.74655 | 44.55782 | 37065 ft | 526 kts | 120° |
| 2026-02-17 14:47 | 27.71145 | 44.63026 | 37063 ft | 525 kts | 120° |
| 2026-02-17 14:48 | 27.67637 | 44.70253 | 37065 ft | 525 kts | 120° |
| 2026-02-17 14:48 | 27.64640 | 44.77765 | 37084 ft | 527 kts | 110° |
| 2026-02-17 14:49 | 27.62791 | 44.85763 | 37077 ft | 528 kts | 102° |
| 2026-02-17 14:49 | 27.61394 | 44.93895 | 37069 ft | 528 kts | 102° |
| 2026-02-17 14:50 | 27.59982 | 45.01903 | 37076 ft | 529 kts | 102° |
| 2026-02-17 14:50 | 27.58497 | 45.10023 | 37076 ft | 529 kts | 103° |
| 2026-02-17 14:51 | 27.56257 | 45.22186 | 37070 ft | 529 kts | 103° |
| 2026-02-17 14:51 | 27.54745 | 45.30299 | 37076 ft | 529 kts | 103° |
| 2026-02-17 14:52 | 27.53217 | 45.38395 | 37081 ft | 528 kts | 103° |
| 2026-02-17 14:52 | 27.51686 | 45.46490 | 37078 ft | 528 kts | 103° |
| 2026-02-17 14:53 | 27.50155 | 45.54573 | 37080 ft | 528 kts | 103° |
| 2026-02-17 14:53 | 27.48620 | 45.62660 | 37088 ft | 527 kts | 103° |
| 2026-02-17 14:54 | 27.47101 | 45.70637 | 37058 ft | 510 kts | 103° |
| 2026-02-17 14:55 | 27.44882 | 45.82236 | 37091 ft | 504 kts | 103° |
| 2026-02-17 14:55 | 27.43399 | 45.89950 | 37095 ft | 504 kts | 103° |
| 2026-02-17 14:56 | 27.41915 | 45.97656 | 37087 ft | 504 kts | 103° |
| 2026-02-17 14:56 | 27.40446 | 46.05255 | 37086 ft | 504 kts | 103° |
| 2026-02-17 14:57 | 27.38953 | 46.12956 | 37096 ft | 504 kts | 103° |
| 2026-02-17 14:57 | 27.37457 | 46.20652 | 37094 ft | 504 kts | 103° |
| 2026-02-17 14:58 | 27.35955 | 46.28357 | 37091 ft | 504 kts | 103° |
| 2026-02-17 14:58 | 27.34499 | 46.36071 | 37093 ft | 504 kts | 102° |
| 2026-02-17 14:59 | 27.32509 | 46.47681 | 37090 ft | 504 kts | 101° |
| 2026-02-17 14:59 | 27.31175 | 46.55424 | 37097 ft | 504 kts | 101° |
| 2026-02-17 15:00 | 27.30052 | 46.61851 | 37092 ft | 504 kts | 101° |
| 2026-02-17 15:00 | 27.28689 | 46.69585 | 37100 ft | 504 kts | 101° |
| 2026-02-17 15:01 | 27.27323 | 46.77308 | 37097 ft | 504 kts | 102° |
| 2026-02-17 15:01 | 27.25954 | 46.85039 | 37090 ft | 504 kts | 102° |
| 2026-02-17 15:02 | 27.24580 | 46.92767 | 37095 ft | 504 kts | 102° |
| 2026-02-17 15:03 | 27.22530 | 47.04252 | 37094 ft | 504 kts | 102° |
| 2026-02-17 15:03 | 27.21147 | 47.11969 | 37096 ft | 504 kts | 102° |
| 2026-02-17 15:04 | 27.19759 | 47.19687 | 37095 ft | 504 kts | 102° |
| 2026-02-17 15:04 | 27.18366 | 47.27406 | 37093 ft | 504 kts | 102° |
| 2026-02-17 15:05 | 27.16970 | 47.35122 | 37098 ft | 504 kts | 102° |
| 2026-02-17 15:05 | 27.15569 | 47.42837 | 37096 ft | 505 kts | 102° |
| 2026-02-17 15:06 | 27.14162 | 47.50566 | 37101 ft | 506 kts | 102° |
| 2026-02-17 15:06 | 27.12738 | 47.58310 | 37095 ft | 507 kts | 102° |
| 2026-02-17 15:07 | 27.10568 | 47.69925 | 37092 ft | 508 kts | 102° |
| 2026-02-17 15:07 | 27.09126 | 47.77633 | 37093 ft | 508 kts | 102° |
| 2026-02-17 15:08 | 27.07670 | 47.85396 | 37091 ft | 509 kts | 102° |
| 2026-02-17 15:08 | 27.06210 | 47.93166 | 37092 ft | 509 kts | 102° |
| 2026-02-17 15:09 | 27.04706 | 48.00814 | 37090 ft | 509 kts | 103° |
| 2026-02-17 15:09 | 27.02979 | 48.08510 | 37090 ft | 509 kts | 104° |
| 2026-02-17 15:10 | 27.01229 | 48.16189 | 37087 ft | 508 kts | 104° |
| 2026-02-17 15:11 | 26.98652 | 48.27711 | 37085 ft | 508 kts | 104° |
| 2026-02-17 15:11 | 26.96941 | 48.35396 | 37081 ft | 508 kts | 104° |
| 2026-02-17 15:12 | 26.95224 | 48.43074 | 37075 ft | 508 kts | 104° |
| 2026-02-17 15:12 | 26.93503 | 48.50747 | 37076 ft | 508 kts | 104° |
| 2026-02-17 15:13 | 26.91777 | 48.58418 | 37076 ft | 508 kts | 104° |
| 2026-02-17 15:13 | 26.90046 | 48.66093 | 37070 ft | 508 kts | 104° |
| 2026-02-17 15:14 | 26.88312 | 48.73762 | 37077 ft | 508 kts | 104° |
| 2026-02-17 15:14 | 26.86748 | 48.81469 | 37071 ft | 508 kts | 101° |
| 2026-02-17 15:15 | 26.84729 | 48.93113 | 37073 ft | 508 kts | 101° |
| 2026-02-17 15:15 | 26.83361 | 49.00732 | 37074 ft | 508 kts | 101° |
| 2026-02-17 15:16 | 26.81927 | 49.08529 | 37076 ft | 508 kts | 101° |
| 2026-02-17 15:16 | 26.80499 | 49.16263 | 37069 ft | 508 kts | 101° |
| 2026-02-17 15:17 | 26.79069 | 49.24006 | 37070 ft | 508 kts | 101° |
| 2026-02-17 15:17 | 26.77636 | 49.31749 | 37064 ft | 508 kts | 101° |
| 2026-02-17 15:18 | 26.76177 | 49.39233 | 37069 ft | 508 kts | 105° |
| 2026-02-17 15:19 | 26.72829 | 49.50478 | 37070 ft | 508 kts | 109° |
| 2026-02-17 15:19 | 26.70552 | 49.57962 | 37066 ft | 508 kts | 108° |
| 2026-02-17 15:20 | 26.68312 | 49.65454 | 37066 ft | 508 kts | 108° |
| 2026-02-17 15:20 | 26.66053 | 49.72943 | 37056 ft | 508 kts | 108° |
| 2026-02-17 15:21 | 26.63788 | 49.80424 | 37056 ft | 508 kts | 108° |
| 2026-02-17 15:21 | 26.61526 | 49.87905 | 37052 ft | 508 kts | 108° |
| 2026-02-17 15:22 | 26.59302 | 49.95403 | 37058 ft | 508 kts | 110° |
| 2026-02-17 15:22 | 26.56876 | 50.02644 | 36975 ft | 500 kts | 107° |
| 2026-02-17 15:23 | 26.54836 | 50.09847 | 35805 ft | 479 kts | 107° |
| 2026-02-17 15:23 | 26.53825 | 50.13364 | 34667 ft | 487 kts | 108° |
| 2026-02-17 15:23 | 26.52771 | 50.16928 | 33904 ft | 479 kts | 108° |
| 2026-02-17 15:23 | 26.51708 | 50.20456 | 33197 ft | 468 kts | 109° |
| 2026-02-17 15:24 | 26.50677 | 50.23847 | 32571 ft | 456 kts | 109° |
| 2026-02-17 15:24 | 26.49667 | 50.27162 | 31896 ft | 446 kts | 109° |
| 2026-02-17 15:24 | 26.48675 | 50.30421 | 31129 ft | 440 kts | 109° |
| 2026-02-17 15:24 | 26.47695 | 50.33642 | 30324 ft | 437 kts | 109° |
| 2026-02-17 15:25 | 26.46722 | 50.36838 | 29439 ft | 433 kts | 109° |
| 2026-02-17 15:25 | 26.45780 | 50.40002 | 28599 ft | 427 kts | 107° |
| 2026-02-17 15:25 | 26.44899 | 50.43138 | 27838 ft | 421 kts | 107° |
| 2026-02-17 15:25 | 26.44046 | 50.46244 | 27404 ft | 419 kts | 107° |
| 2026-02-17 15:26 | 26.43210 | 50.49284 | 27265 ft | 420 kts | 107° |
| 2026-02-17 15:26 | 26.42351 | 50.52379 | 27089 ft | 415 kts | 107° |
| 2026-02-17 15:26 | 26.41499 | 50.55428 | 27057 ft | 409 kts | 107° |
| 2026-02-17 15:27 | 26.39804 | 50.61459 | 26801 ft | 407 kts | 107° |
| 2026-02-17 15:27 | 26.38953 | 50.64471 | 26683 ft | 407 kts | 107° |
| 2026-02-17 15:27 | 26.38106 | 50.67468 | 26625 ft | 404 kts | 107° |
| 2026-02-17 15:27 | 26.37265 | 50.70439 | 26572 ft | 401 kts | 107° |
| 2026-02-17 15:28 | 26.36427 | 50.73399 | 26483 ft | 399 kts | 107° |
| 2026-02-17 15:28 | 26.35586 | 50.76340 | 26357 ft | 398 kts | 107° |
| 2026-02-17 15:28 | 26.34725 | 50.79317 | 26218 ft | 398 kts | 107° |
| 2026-02-17 15:28 | 26.33887 | 50.82209 | 26154 ft | 396 kts | 107° |
| 2026-02-17 15:29 | 26.33042 | 50.85127 | 26103 ft | 396 kts | 107° |
| 2026-02-17 15:29 | 26.32198 | 50.88044 | 26083 ft | 396 kts | 107° |
| 2026-02-17 15:29 | 26.31351 | 50.90971 | 26078 ft | 397 kts | 107° |
| 2026-02-17 15:29 | 26.30453 | 50.93931 | 26073 ft | 398 kts | 110° |
| 2026-02-17 15:30 | 26.29293 | 50.96800 | 26087 ft | 418 kts | 117° |
| 2026-02-17 15:30 | 26.27860 | 50.99699 | 26088 ft | 431 kts | 118° |
| 2026-02-17 15:30 | 26.26432 | 51.02502 | 26073 ft | 425 kts | 119° |
| 2026-02-17 15:31 | 26.23498 | 51.08286 | 26081 ft | 433 kts | 118° |
| 2026-02-17 15:31 | 26.22018 | 51.11224 | 26075 ft | 435 kts | 118° |
| 2026-02-17 15:31 | 26.20542 | 51.14157 | 26070 ft | 434 kts | 118° |
| 2026-02-17 15:31 | 26.19071 | 51.17080 | 26060 ft | 433 kts | 118° |
| 2026-02-17 15:32 | 26.17595 | 51.20010 | 26069 ft | 436 kts | 118° |
| 2026-02-17 15:32 | 26.16105 | 51.22968 | 26077 ft | 440 kts | 118° |
| 2026-02-17 15:32 | 26.14611 | 51.25930 | 26064 ft | 436 kts | 118° |
| 2026-02-17 15:32 | 26.13151 | 51.28823 | 26044 ft | 434 kts | 118° |
| 2026-02-17 15:33 | 26.11658 | 51.31779 | 26057 ft | 431 kts | 118° |
| 2026-02-17 15:33 | 26.10190 | 51.34681 | 25985 ft | 428 kts | 119° |
| 2026-02-17 15:33 | 26.08414 | 51.37302 | 25484 ft | 426 kts | 137° |
| 2026-02-17 15:33 | 26.06004 | 51.39119 | 24919 ft | 426 kts | 155° |
| 2026-02-17 15:34 | 26.03225 | 51.40266 | 24319 ft | 428 kts | 163° |
| 2026-02-17 15:34 | 26.00421 | 51.41110 | 23751 ft | 429 kts | 167° |
| 2026-02-17 15:34 | 25.97491 | 51.41704 | 23196 ft | 427 kts | 174° |
| 2026-02-17 15:35 | 25.91615 | 51.42263 | 22415 ft | 415 kts | 176° |
| 2026-02-17 15:35 | 25.88782 | 51.42485 | 21972 ft | 412 kts | 176° |
| 2026-02-17 15:35 | 25.85928 | 51.42710 | 21458 ft | 411 kts | 175° |
| 2026-02-17 15:35 | 25.83079 | 51.42944 | 20984 ft | 409 kts | 175° |
| 2026-02-17 15:36 | 25.80244 | 51.43185 | 20493 ft | 408 kts | 175° |
| 2026-02-17 15:36 | 25.77461 | 51.43427 | 19863 ft | 396 kts | 175° |
| 2026-02-17 15:36 | 25.74723 | 51.43669 | 18928 ft | 394 kts | 174° |
| 2026-02-17 15:36 | 25.71987 | 51.43913 | 17870 ft | 395 kts | 174° |
| 2026-02-17 15:37 | 25.69252 | 51.44158 | 16858 ft | 393 kts | 174° |
| 2026-02-17 15:37 | 25.66549 | 51.44400 | 15974 ft | 387 kts | 174° |
| 2026-02-17 15:37 | 25.63877 | 51.44638 | 15451 ft | 389 kts | 174° |
| 2026-02-17 15:37 | 25.61173 | 51.44880 | 15281 ft | 390 kts | 174° |
| 2026-02-17 15:38 | 25.58500 | 51.45118 | 14970 ft | 378 kts | 174° |
| 2026-02-17 15:38 | 25.55913 | 51.45347 | 14338 ft | 370 kts | 173° |
| 2026-02-17 15:38 | 25.53353 | 51.45575 | 13469 ft | 368 kts | 173° |
| 2026-02-17 15:39 | 25.48263 | 51.46029 | 11914 ft | 368 kts | 173° |
| 2026-02-17 15:39 | 25.45722 | 51.46255 | 11566 ft | 364 kts | 173° |
| 2026-02-17 15:39 | 25.43217 | 51.46478 | 11290 ft | 358 kts | 173° |
| 2026-02-17 15:39 | 25.40748 | 51.46697 | 10957 ft | 354 kts | 173° |
| 2026-02-17 15:40 | 25.38302 | 51.46914 | 10592 ft | 352 kts | 173° |
| 2026-02-17 15:40 | 25.35864 | 51.47131 | 10213 ft | 351 kts | 173° |
| 2026-02-17 15:40 | 25.33439 | 51.47346 | 9833 ft | 348 kts | 173° |
| 2026-02-17 15:40 | 25.31001 | 51.47562 | 9483 ft | 344 kts | 173° |
| 2026-02-17 15:41 | 25.28655 | 51.47770 | 9394 ft | 330 kts | 173° |
| 2026-02-17 15:41 | 25.26444 | 51.47964 | 9247 ft | 308 kts | 173° |
| 2026-02-17 15:41 | 25.24401 | 51.48143 | 9078 ft | 289 kts | 173° |
| 2026-02-17 15:41 | 25.22415 | 51.48329 | 8774 ft | 276 kts | 169° |
| 2026-02-17 15:42 | 25.20605 | 51.48871 | 8332 ft | 266 kts | 155° |
| 2026-02-17 15:42 | 25.18919 | 51.49651 | 7882 ft | 261 kts | 153° |
| 2026-02-17 15:42 | 25.17816 | 51.50180 | 7558 ft | 260 kts | 153° |
| 2026-02-17 15:43 | 25.14506 | 51.51704 | 6630 ft | 256 kts | 154° |
| 2026-02-17 15:43 | 25.12868 | 51.52434 | 6154 ft | 252 kts | 154° |
| 2026-02-17 15:43 | 25.11251 | 51.53149 | 5712 ft | 247 kts | 154° |
| 2026-02-17 15:43 | 25.09660 | 51.53852 | 5154 ft | 247 kts | 155° |
| 2026-02-17 15:44 | 25.08067 | 51.54555 | 4633 ft | 246 kts | 155° |
| 2026-02-17 15:44 | 25.06488 | 51.55251 | 4160 ft | 243 kts | 156° |
| 2026-02-17 15:44 | 25.04927 | 51.55940 | 3722 ft | 242 kts | 156° |
| 2026-02-17 15:44 | 25.03370 | 51.56626 | 3541 ft | 242 kts | 157° |
| 2026-02-17 15:45 | 25.01834 | 51.57355 | 3492 ft | 238 kts | 147° |
| 2026-02-17 15:45 | 25.00701 | 51.58641 | 3386 ft | 235 kts | 115° |
| 2026-02-17 15:45 | 25.00364 | 51.60362 | 3216 ft | 230 kts | 83° |
| 2026-02-17 15:45 | 25.00695 | 51.62058 | 2987 ft | 225 kts | 73° |
| 2026-02-17 15:46 | 25.01114 | 51.63731 | 2676 ft | 227 kts | 73° |
| 2026-02-17 15:46 | 25.01688 | 51.65331 | 2455 ft | 221 kts | 52° |
| 2026-02-17 15:46 | 25.02880 | 51.66345 | 2426 ft | 219 kts | 21° |
| 2026-02-17 15:47 | 25.05877 | 51.67172 | 2420 ft | 225 kts | 12° |
| 2026-02-17 15:47 | 25.07411 | 51.67533 | 2414 ft | 225 kts | 13° |
| 2026-02-17 15:47 | 25.08963 | 51.67642 | 2406 ft | 226 kts | 351° |
| 2026-02-17 15:47 | 25.10474 | 51.67154 | 2411 ft | 228 kts | 342° |
| 2026-02-17 15:48 | 25.11953 | 51.66539 | 2408 ft | 223 kts | 340° |
| 2026-02-17 15:48 | 25.13341 | 51.65926 | 2372 ft | 205 kts | 339° |
| 2026-02-17 15:48 | 25.14599 | 51.65371 | 2294 ft | 187 kts | 339° |
| 2026-02-17 15:48 | 25.15776 | 51.64850 | 2063 ft | 184 kts | 340° |
| 2026-02-17 15:49 | 25.16964 | 51.64326 | 1817 ft | 179 kts | 340° |
| 2026-02-17 15:49 | 25.18075 | 51.63836 | 1575 ft | 164 kts | 340° |
| 2026-02-17 15:49 | 25.19080 | 51.63393 | 1378 ft | 154 kts | 340° |
| 2026-02-17 15:49 | 25.20084 | 51.62952 | 1159 ft | 155 kts | 340° |
| 2026-02-17 15:50 | 25.21076 | 51.62506 | 882 ft | 152 kts | 339° |
| 2026-02-17 15:50 | 25.22025 | 51.62092 | 679 ft | 143 kts | 341° |
| 2026-02-17 15:50 | 25.23925 | 51.61251 | 359 ft | 148 kts | 341° |
| 2026-02-17 15:51 | 25.24855 | 51.60842 | 158 ft | 146 kts | 340° |
| 2026-02-17 15:51 | 25.25802 | 51.60427 | 35 ft | 141 kts | 340° |
| 2026-02-17 15:51 | 25.26598 | 51.60075 | 30 ft | 102 kts | 338° |
| 2026-02-17 15:51 | 25.27111 | 51.59851 | 31 ft | 57 kts | 339° |
| 2026-02-17 15:52 | 25.27455 | 51.59699 | 31 ft | 60 kts | 338° |
| 2026-02-17 15:52 | 25.27874 | 51.59515 | 28 ft | 63 kts | 339° |
| 2026-02-17 15:52 | 25.28069 | 51.59503 | 31 ft | 17 kts | 31° |
| 2026-02-17 15:52 | 25.28113 | 51.59595 | 33 ft | 8 kts | 121° |
| 2026-02-17 15:53 | 25.28024 | 51.59653 | 33 ft | 30 kts | 159° |
| 2026-02-17 15:53 | 25.27810 | 51.59746 | 34 ft | 28 kts | 159° |
| 2026-02-17 15:53 | 25.27625 | 51.59824 | 33 ft | 28 kts | 159° |
| 2026-02-17 15:53 | 25.27445 | 51.59904 | 34 ft | 28 kts | 157° |
| 2026-02-17 15:54 | 25.27267 | 51.59984 | 34 ft | 28 kts | 158° |
| 2026-02-17 15:54 | 25.27119 | 51.60050 | 33 ft | 12 kts | 158° |
| 2026-02-17 15:54 | 25.27098 | 51.60059 | 33 ft | 0 kts | 158° |
| 2026-02-17 15:55 | 25.27079 | 51.60067 | 33 ft | 16 kts | 158° |
| 2026-02-17 15:56 | 25.27047 | 51.60196 | 34 ft | 21 kts | 64° |
| 2026-02-17 15:56 | 25.27109 | 51.60348 | 35 ft | 21 kts | 66° |
| 2026-02-17 15:56 | 25.27165 | 51.60500 | 35 ft | 24 kts | 68° |
| 2026-02-17 15:56 | 25.27252 | 51.60739 | 35 ft | 33 kts | 68° |
| 2026-02-17 15:57 | 25.27338 | 51.60974 | 35 ft | 33 kts | 69° |
| 2026-02-17 15:57 | 25.27419 | 51.61199 | 35 ft | 25 kts | 68° |
| 2026-02-17 15:57 | 25.27477 | 51.61353 | 35 ft | 21 kts | 68° |
| 2026-02-17 15:57 | 25.27495 | 51.61411 | 34 ft | 0 kts | 76° |
| 2026-02-17 15:58 | 25.27499 | 51.61425 | 34 ft | 11 kts | 71° |
| 2026-02-17 15:58 | 25.27478 | 51.61514 | 34 ft | 14 kts | 152° |
| 2026-02-17 15:58 | 25.27196 | 51.61646 | 34 ft | 20 kts | 159° |
| 2026-02-17 15:59 | 25.27088 | 51.61670 | 34 ft | 13 kts | 205° |
| 2026-02-17 15:59 | 25.27041 | 51.61574 | 35 ft | 18 kts | 249° |
| 2026-02-17 15:59 | 25.26989 | 51.61451 | 35 ft | 11 kts | 234° |
| 2026-02-17 15:59 | 25.26926 | 51.61415 | 35 ft | 7 kts | 211° |
| 2026-02-17 16:00 | 25.26922 | 51.61365 | 35 ft | 7 kts | 288° |
| 2026-02-17 16:00 | 25.26939 | 51.61322 | 35 ft | 6 kts | 294° |
| 2026-02-17 16:00 | 25.26944 | 51.61310 | 35 ft | 0 kts | 293° |